Terminal Aerodrome Forecast
Issued by NWS

Home | Current Version | Previous Version | Text Only | Print | Product List | Glossary On
Versions: 1 2 3 4 5 6 7 8 9 10 11 12 13 14 15 16 17 18 19 20 21 22 23 24 25 26 27
000
FTUS43 KOAX 271125
TAFCDR
TAF
KCDR 271125Z 2712/2812 20008KT P6SM VCSH BKN070
     FM271400 21010G20KT P6SM BKN050
     FM272200 19009KT P6SM VCTS BKN060CB
     FM280300 18015G25KT P6SM SCT070=

USA.gov is the U.S. government's official web portal to all federal, state and local government web resources and services.